Time;durP1;ratioP1;P1;durP2;ratioP2;P2;SDS_P1;SDS_P2;PMS_P1;PMS_P2;Temp;Humidity;BMP_temperature;BMP_pressure;BME280_temperature;BME280_humidity;BME280_pressure;Samples;Min_cycle;Max_cycle;Signal;HPM_P1;HPM_P2
2021/05/05 00:00:15;;;;;;;3.38;1.38;;;;;;;;;;5052567;28;20101;-65
2021/05/05 00:02:41;;;;;;;9.18;1.95;;;;;;;;;;5054276;28;20060;-65
2021/05/05 00:05:06;;;;;;;3.72;1.63;;;;;;;;;;5053749;28;20478;-65
2021/05/05 00:07:32;;;;;;;6.20;2.20;;;;;;;;;;5054034;28;20104;-65
2021/05/05 00:09:57;;;;;;;10.05;2.47;;;;;;;;;;5053953;28;20464;-65
2021/05/05 00:12:22;;;;;;;8.55;1.90;;;;;;;;;;5068911;28;20055;-65
2021/05/05 00:14:47;;;;;;;6.13;1.98;;;;;;;;;;5072980;28;20026;-65
2021/05/05 00:17:13;;;;;;;9.10;2.45;;;;;;;;;;5073479;28;20020;-65
2021/05/05 00:19:38;;;;;;;2.90;1.20;;;;;;;;;;5073548;28;20388;-65
2021/05/05 00:22:04;;;;;;;8.40;1.73;;;;;;;;;;5073608;28;20067;-65
2021/05/05 00:24:29;;;;;;;5.28;2.08;;;;;;;;;;5073413;28;20468;-65
2021/05/05 00:26:54;;;;;;;4.13;1.75;;;;;;;;;;5073563;28;20078;-65
2021/05/05 00:29:19;;;;;;;5.85;2.00;;;;;;;;;;5071997;28;20078;-65
2021/05/05 00:31:45;;;;;;;3.67;1.40;;;;;;;;;;5073577;28;20065;-65
2021/05/05 00:34:10;;;;;;;6.40;1.55;;;;;;;;;;5073111;28;20029;-65
2021/05/05 00:36:35;;;;;;;3.45;1.25;;;;;;;;;;5073597;28;20044;-65
2021/05/05 00:39:01;;;;;;;5.63;1.55;;;;;;;;;;5073299;28;20369;-65
2021/05/05 00:41:26;;;;;;;3.78;1.70;;;;;;;;;;5070666;28;20378;-65
2021/05/05 00:43:51;;;;;;;3.97;1.50;;;;;;;;;;5053134;28;20025;-65
2021/05/05 00:46:17;;;;;;;6.50;1.58;;;;;;;;;;5053493;28;20021;-65
2021/05/05 00:48:42;;;;;;;3.67;1.17;;;;;;;;;;5053366;28;20028;-65
2021/05/05 00:51:08;;;;;;;4.15;1.35;;;;;;;;;;5053339;28;20071;-66
2021/05/05 00:53:33;;;;;;;5.20;1.40;;;;;;;;;;5052961;28;20060;-65
2021/05/05 00:55:59;;;;;;;6.82;1.45;;;;;;;;;;5053363;28;20087;-65
2021/05/05 00:58:25;;;;;;;3.15;1.30;;;;;;;;;;5053119;28;20021;-65
2021/05/05 01:00:51;;;;;;;7.47;1.33;;;;;;;;;;5053226;28;20067;-65
2021/05/05 01:03:17;;;;;;;2.42;1.20;;;;;;;;;;5052815;28;20037;-65
2021/05/05 01:05:43;;;;;;;4.53;1.35;;;;;;;;;;5053218;28;20039;-65
2021/05/05 01:08:08;;;;;;;5.00;1.40;;;;;;;;;;5053257;28;20029;-65
2021/05/05 01:10:34;;;;;;;6.15;1.55;;;;;;;;;;5052876;28;20110;-65
2021/05/05 01:12:59;;;;;;;5.78;1.60;;;;;;;;;;5053181;28;20017;-65
2021/05/05 01:15:25;;;;;;;9.40;1.90;;;;;;;;;;5052907;28;20371;-65
2021/05/05 01:17:50;;;;;;;6.30;1.35;;;;;;;;;;5053062;28;20029;-65
2021/05/05 01:20:15;;;;;;;4.30;1.45;;;;;;;;;;5052348;28;20373;-65
2021/05/05 01:22:41;;;;;;;4.18;1.50;;;;;;;;;;5053168;28;20020;-65
2021/05/05 01:25:07;;;;;;;4.68;1.40;;;;;;;;;;5052766;28;20048;-65
2021/05/05 01:27:32;;;;;;;8.15;1.55;;;;;;;;;;5052968;28;20415;-65
2021/05/05 01:29:58;;;;;;;2.85;1.10;;;;;;;;;;5052893;28;20067;-65
2021/05/05 01:32:24;;;;;;;3.03;1.20;;;;;;;;;;5052773;28;20385;-65
2021/05/05 01:34:50;;;;;;;2.40;1.00;;;;;;;;;;5052099;28;20108;-65
2021/05/05 01:37:15;;;;;;;2.72;1.23;;;;;;;;;;5052894;28;20496;-65
2021/05/05 01:39:41;;;;;;;2.88;1.65;;;;;;;;;;5052680;28;20064;-65
2021/05/05 01:42:07;;;;;;;2.35;1.20;;;;;;;;;;5052786;28;20420;-65
2021/05/05 01:44:34;;;;;;;2.20;1.08;;;;;;;;;;5052676;28;20040;-63
2021/05/05 01:47:00;;;;;;;2.38;1.08;;;;;;;;;;5052758;28;20087;-65
2021/05/05 01:49:25;;;;;;;2.83;1.30;;;;;;;;;;5052602;28;20013;-65
2021/05/05 01:51:53;;;;;;;3.00;0.88;;;;;;;;;;5052854;28;20025;-65
2021/05/05 01:54:19;;;;;;;2.53;1.40;;;;;;;;;;5055798;28;20029;-65
2021/05/05 01:56:44;;;;;;;6.22;1.20;;;;;;;;;;5056541;28;20028;-65
2021/05/05 01:59:10;;;;;;;3.05;1.10;;;;;;;;;;5055997;28;20369;-65
2021/05/05 02:01:35;;;;;;;6.53;1.33;;;;;;;;;;5056144;28;20032;-65
2021/05/05 02:04:02;;;;;;;3.22;1.20;;;;;;;;;;5056221;28;20028;-65
2021/05/05 02:06:28;;;;;;;3.22;0.93;;;;;;;;;;5055069;28;20024;-65
2021/05/05 02:08:54;;;;;;;5.47;1.35;;;;;;;;;;5055034;28;20559;-65
2021/05/05 02:11:19;;;;;;;4.75;1.20;;;;;;;;;;5056469;28;20085;-65
2021/05/05 02:13:45;;;;;;;6.40;1.45;;;;;;;;;;5056065;28;20087;-65
2021/05/05 02:16:10;;;;;;;5.35;1.20;;;;;;;;;;5056218;28;20036;-65
2021/05/05 02:18:35;;;;;;;4.50;1.40;;;;;;;;;;5055762;28;20053;-65
2021/05/05 02:21:00;;;;;;;2.47;1.08;;;;;;;;;;5055941;28;20036;-65
2021/05/05 02:23:26;;;;;;;2.50;1.10;;;;;;;;;;5055749;28;20028;-64
2021/05/05 02:25:51;;;;;;;2.40;1.02;;;;;;;;;;5056113;28;20016;-65
2021/05/05 02:28:16;;;;;;;5.68;1.20;;;;;;;;;;5056061;28;20457;-65
2021/05/05 02:30:42;;;;;;;2.22;1.00;;;;;;;;;;5056110;28;20033;-65
2021/05/05 02:33:07;;;;;;;4.00;1.02;;;;;;;;;;5055623;28;20040;-65
2021/05/05 02:35:32;;;;;;;6.75;1.55;;;;;;;;;;5055780;28;20025;-65
2021/05/05 02:37:58;;;;;;;4.05;1.50;;;;;;;;;;5055851;28;20393;-64
2021/05/05 02:40:23;;;;;;;3.20;1.00;;;;;;;;;;5055647;28;20067;-65
2021/05/05 02:42:48;;;;;;;2.85;1.17;;;;;;;;;;5055713;28;20064;-65
2021/05/05 02:45:14;;;;;;;3.92;1.10;;;;;;;;;;5055499;28;20047;-65
2021/05/05 02:47:39;;;;;;;3.92;1.08;;;;;;;;;;5054320;28;20071;-65
2021/05/05 02:50:05;;;;;;;2.70;1.33;;;;;;;;;;5055642;28;20458;-65
2021/05/05 02:52:30;;;;;;;11.73;1.92;;;;;;;;;;5055516;28;20389;-65
2021/05/05 02:54:55;;;;;;;4.93;1.30;;;;;;;;;;5055406;28;20055;-65
2021/05/05 02:57:20;;;;;;;3.50;1.40;;;;;;;;;;5055480;28;20410;-65
2021/05/05 02:59:46;;;;;;;6.18;1.63;;;;;;;;;;5054985;28;20051;-65
2021/05/05 03:02:11;;;;;;;8.93;3.25;;;;;;;;;;5055367;28;20024;-65
2021/05/05 03:04:36;;;;;;;5.85;1.33;;;;;;;;;;5054069;28;20374;-65
2021/05/05 03:07:02;;;;;;;6.38;1.50;;;;;;;;;;5054979;28;20036;-65
2021/05/05 03:09:27;;;;;;;4.65;1.73;;;;;;;;;;5054738;28;20066;-65
2021/05/05 03:11:55;;;;;;;3.72;1.35;;;;;;;;;;5055308;28;20104;-65
2021/05/05 03:14:20;;;;;;;4.75;1.40;;;;;;;;;;5054682;28;20465;-65
2021/05/05 03:16:45;;;;;;;2.42;1.23;;;;;;;;;;5055173;28;20027;-65
2021/05/05 03:19:10;;;;;;;5.13;1.45;;;;;;;;;;5054864;28;20036;-65
2021/05/05 03:21:38;;;;;;;5.30;1.75;;;;;;;;;;5055059;28;20039;-65
2021/05/05 03:24:03;;;;;;;4.95;1.48;;;;;;;;;;5054795;28;20084;-64
2021/05/05 03:26:28;;;;;;;5.68;1.63;;;;;;;;;;5055010;28;20021;-65
2021/05/05 03:28:54;;;;;;;6.05;1.33;;;;;;;;;;5054810;28;20033;-65
2021/05/05 03:31:19;;;;;;;7.38;1.67;;;;;;;;;;5054780;28;20465;-65
2021/05/05 03:33:44;;;;;;;8.40;3.17;;;;;;;;;;5054702;28;20107;-64
2021/05/05 03:36:09;;;;;;;3.00;1.17;;;;;;;;;;5054770;28;20484;-65
2021/05/05 03:38:35;;;;;;;3.00;1.30;;;;;;;;;;5054421;28;20462;-65
2021/05/05 03:41:00;;;;;;;6.47;1.65;;;;;;;;;;5054166;28;20045;-65
2021/05/05 03:43:26;;;;;;;4.55;1.98;;;;;;;;;;5054486;28;20033;-65
2021/05/05 03:45:51;;;;;;;4.15;1.23;;;;;;;;;;5054447;28;20104;-65
2021/05/05 03:48:16;;;;;;;7.30;1.60;;;;;;;;;;5054502;28;20017;-64
2021/05/05 03:50:42;;;;;;;4.18;1.77;;;;;;;;;;5054384;28;20036;-65
2021/05/05 03:53:07;;;;;;;3.17;1.40;;;;;;;;;;5054460;28;20052;-65
2021/05/05 03:55:33;;;;;;;3.22;1.20;;;;;;;;;;5054301;28;20032;-64
2021/05/05 03:57:58;;;;;;;5.50;1.40;;;;;;;;;;5054306;28;20029;-65
2021/05/05 04:00:24;;;;;;;5.10;1.65;;;;;;;;;;5054098;28;20470;-65
2021/05/05 04:02:49;;;;;;;4.70;1.45;;;;;;;;;;5054051;28;20067;-65
2021/05/05 04:05:14;;;;;;;5.57;1.67;;;;;;;;;;5053918;28;20037;-65
2021/05/05 04:07:40;;;;;;;4.78;1.48;;;;;;;;;;5054137;28;20028;-65
2021/05/05 04:10:06;;;;;;;4.80;1.40;;;;;;;;;;5053968;28;20017;-65
2021/05/05 04:12:31;;;;;;;6.43;1.67;;;;;;;;;;5053474;28;20099;-65
2021/05/05 04:14:56;;;;;;;6.53;1.80;;;;;;;;;;5053912;28;20126;-65
2021/05/05 04:17:22;;;;;;;5.10;1.42;;;;;;;;;;5053703;28;20104;-65
2021/05/05 04:19:48;;;;;;;3.38;1.50;;;;;;;;;;5053830;28;20033;-64
2021/05/05 04:22:13;;;;;;;3.65;1.52;;;;;;;;;;5053924;28;20032;-65
2021/05/05 04:24:38;;;;;;;5.85;1.67;;;;;;;;;;5053526;28;20029;-64
2021/05/05 04:27:04;;;;;;;2.85;1.30;;;;;;;;;;5053760;28;20115;-64
2021/05/05 04:29:29;;;;;;;4.53;1.67;;;;;;;;;;5053580;28;20021;-65
2021/05/05 04:31:54;;;;;;;4.80;1.75;;;;;;;;;;5053737;28;20084;-65
2021/05/05 04:34:20;;;;;;;5.30;1.75;;;;;;;;;;5053424;28;20389;-64
2021/05/05 04:36:45;;;;;;;18.55;4.90;;;;;;;;;;5053587;28;20125;-64
2021/05/05 04:39:11;;;;;;;4.30;1.70;;;;;;;;;;5052084;28;20031;-65
2021/05/05 04:41:36;;;;;;;4.63;1.50;;;;;;;;;;5053377;28;20527;-64
2021/05/05 04:44:02;;;;;;;7.22;1.75;;;;;;;;;;5053418;28;20048;-64
2021/05/05 04:46:27;;;;;;;12.43;1.80;;;;;;;;;;5053681;28;20055;-64
2021/05/05 04:48:53;;;;;;;5.10;1.30;;;;;;;;;;5053395;28;20113;-65
2021/05/05 04:51:18;;;;;;;8.93;1.75;;;;;;;;;;5053282;28;20016;-65
2021/05/05 04:53:44;;;;;;;5.78;1.83;;;;;;;;;;5053307;28;20438;-65
2021/05/05 04:56:09;;;;;;;4.47;1.52;;;;;;;;;;5053027;28;20032;-65
2021/05/05 04:58:34;;;;;;;4.05;1.73;;;;;;;;;;5052983;28;20096;-65
2021/05/05 05:01:00;;;;;;;6.88;1.50;;;;;;;;;;5053198;28;20052;-64
2021/05/05 05:03:25;;;;;;;5.15;1.50;;;;;;;;;;5053168;28;20037;-65
2021/05/05 05:05:50;;;;;;;5.25;1.27;;;;;;;;;;5053067;28;20029;-65
2021/05/05 05:08:15;;;;;;;3.67;1.42;;;;;;;;;;5052957;28;20432;-65
2021/05/05 05:10:41;;;;;;;5.15;1.40;;;;;;;;;;5052969;28;20025;-64
2021/05/05 05:13:06;;;;;;;10.20;1.85;;;;;;;;;;5052797;28;20005;-64
2021/05/05 05:15:32;;;;;;;5.07;1.63;;;;;;;;;;5053129;28;20017;-65
2021/05/05 05:17:57;;;;;;;7.72;2.03;;;;;;;;;;5053160;28;20033;-65
2021/05/05 05:20:22;;;;;;;4.70;1.50;;;;;;;;;;5052896;28;20106;-65
2021/05/05 05:22:48;;;;;;;4.82;1.40;;;;;;;;;;5052852;28;20019;-65
2021/05/05 05:25:13;;;;;;;2.47;1.10;;;;;;;;;;5052746;28;20048;-65
2021/05/05 05:27:39;;;;;;;2.15;1.20;;;;;;;;;;5053539;28;20049;-65
2021/05/05 05:30:05;;;;;;;3.63;1.38;;;;;;;;;;5056734;28;20052;-65
2021/05/05 05:32:31;;;;;;;15.82;1.98;;;;;;;;;;5057162;28;20032;-65
2021/05/05 05:34:56;;;;;;;4.65;1.35;;;;;;;;;;5056984;28;20511;-63
2021/05/05 05:37:21;;;;;;;2.08;1.13;;;;;;;;;;5056914;28;20025;-64
2021/05/05 05:39:46;;;;;;;2.90;1.05;;;;;;;;;;5056570;28;20094;-64
2021/05/05 05:42:12;;;;;;;1.48;0.95;;;;;;;;;;5056819;28;20021;-64
2021/05/05 05:44:37;;;;;;;2.67;1.10;;;;;;;;;;5056376;28;20021;-64
2021/05/05 05:47:02;;;;;;;2.55;1.08;;;;;;;;;;5057127;28;20113;-64
2021/05/05 05:49:28;;;;;;;4.10;1.10;;;;;;;;;;5056563;28;20457;-64
2021/05/05 05:51:53;;;;;;;1.63;1.05;;;;;;;;;;5056808;28;20031;-64
2021/05/05 05:54:19;;;;;;;1.27;0.93;;;;;;;;;;5056834;28;20033;-64
2021/05/05 05:56:44;;;;;;;1.17;0.80;;;;;;;;;;5056718;28;20028;-64
2021/05/05 05:59:09;;;;;;;2.55;0.80;;;;;;;;;;5056520;28;20088;-64
2021/05/05 06:01:34;;;;;;;1.35;0.73;;;;;;;;;;5056488;28;20442;-64
2021/05/05 06:04:00;;;;;;;1.75;0.90;;;;;;;;;;5056348;28;20036;-64
2021/05/05 06:06:25;;;;;;;3.53;0.88;;;;;;;;;;5056460;28;20024;-64
2021/05/05 06:08:50;;;;;;;3.33;0.90;;;;;;;;;;5056429;28;20033;-65
2021/05/05 06:11:16;;;;;;;1.73;0.85;;;;;;;;;;5056664;28;20021;-64
2021/05/05 06:13:41;;;;;;;1.38;0.70;;;;;;;;;;5056346;28;20079;-65
2021/05/05 06:16:06;;;;;;;1.70;0.68;;;;;;;;;;5056220;28;20064;-65
2021/05/05 06:18:32;;;;;;;1.88;0.80;;;;;;;;;;5056256;28;20358;-65
2021/05/05 06:20:57;;;;;;;1.88;0.80;;;;;;;;;;5055879;28;20021;-65
2021/05/05 06:23:22;;;;;;;2.15;1.08;;;;;;;;;;5056108;28;20035;-65
2021/05/05 06:25:48;;;;;;;2.83;0.80;;;;;;;;;;5055924;28;20136;-65
2021/05/05 06:28:13;;;;;;;1.45;0.77;;;;;;;;;;5056064;28;20024;-65
2021/05/05 06:30:38;;;;;;;2.83;0.63;;;;;;;;;;5055886;28;20036;-65
2021/05/05 06:33:04;;;;;;;1.65;0.70;;;;;;;;;;5056215;28;20436;-65
2021/05/05 06:35:29;;;;;;;1.65;0.75;;;;;;;;;;5055317;28;20480;-64
2021/05/05 06:37:55;;;;;;;1.05;0.70;;;;;;;;;;5055495;28;20068;-65
2021/05/05 06:40:20;;;;;;;4.30;1.50;;;;;;;;;;5055512;28;20045;-65
2021/05/05 06:42:46;;;;;;;4.03;0.93;;;;;;;;;;5055743;28;20450;-64
2021/05/05 06:45:11;;;;;;;3.10;0.80;;;;;;;;;;5055534;28;20390;-64
2021/05/05 06:47:36;;;;;;;3.03;0.60;;;;;;;;;;5055574;28;20052;-64
2021/05/05 06:50:04;;;;;;;1.95;0.85;;;;;;;;;;5055333;28;20423;-64
2021/05/05 06:52:29;;;;;;;2.13;0.43;;;;;;;;;;5055530;28;20033;-64
2021/05/05 06:54:54;;;;;;;0.60;0.60;;;;;;;;;;5055417;28;20467;-65
2021/05/05 06:57:19;;;;;;;1.80;0.70;;;;;;;;;;5055482;28;20067;-64
2021/05/05 06:59:45;;;;;;;3.28;0.70;;;;;;;;;;5055285;28;20372;-65
2021/05/05 07:02:10;;;;;;;1.85;0.70;;;;;;;;;;5055434;28;20454;-65
2021/05/05 07:04:35;;;;;;;1.52;1.20;;;;;;;;;;5055167;28;20025;-65
2021/05/05 07:07:00;;;;;;;2.20;0.70;;;;;;;;;;5055368;28;20033;-65
2021/05/05 07:09:26;;;;;;;2.10;0.90;;;;;;;;;;5055009;28;20021;-65
2021/05/05 07:11:51;;;;;;;1.05;0.95;;;;;;;;;;5055305;28;20048;-65
2021/05/05 07:14:16;;;;;;;1.90;0.85;;;;;;;;;;5054898;28;20141;-65
2021/05/05 07:16:41;;;;;;;5.68;0.80;;;;;;;;;;5055236;28;20438;-65
2021/05/05 07:19:07;;;;;;;3.08;1.10;;;;;;;;;;5055061;28;20024;-65
2021/05/05 07:21:32;;;;;;;1.67;0.80;;;;;;;;;;5054999;28;20033;-65
2021/05/05 07:23:58;;;;;;;2.60;0.70;;;;;;;;;;5054828;28;20057;-65
2021/05/05 07:26:23;;;;;;;1.98;0.52;;;;;;;;;;5055064;28;20425;-65
2021/05/05 07:28:49;;;;;;;0.75;0.32;;;;;;;;;;5054927;28;20032;-64
2021/05/05 07:31:14;;;;;;;2.90;0.68;;;;;;;;;;5047896;28;20020;-65
2021/05/05 07:33:40;;;;;;;1.48;0.80;;;;;;;;;;5052586;28;20078;-65
2021/05/05 07:36:13;;;;;;;1.50;0.90;;;;;;;;;;5051960;28;20032;-65
2021/05/05 07:48:59;;;;;;;0.80;0.80;;;;;;;;;;5051590;28;20033;-65
2021/05/05 07:51:24;;;;;;;2.83;1.00;;;;;;;;;;5052891;28;20021;-66
2021/05/05 07:53:50;;;;;;;1.92;0.65;;;;;;;;;;5044684;28;20423;-65
2021/05/05 07:56:16;;;;;;;0.80;0.55;;;;;;;;;;5046247;28;20048;-65
2021/05/05 07:58:42;;;;;;;3.03;0.55;;;;;;;;;;5051807;28;20039;-65
2021/05/05 08:01:08;;;;;;;2.05;1.00;;;;;;;;;;5051437;28;20028;-65
2021/05/05 08:03:34;;;;;;;2.55;0.80;;;;;;;;;;5051501;28;20075;-65
2021/05/05 08:05:59;;;;;;;2.42;0.80;;;;;;;;;;5051234;28;20025;-65
2021/05/05 08:08:25;;;;;;;1.95;0.52;;;;;;;;;;5051346;28;20021;-65
2021/05/05 08:10:50;;;;;;;0.63;0.47;;;;;;;;;;5051366;28;20028;-65
2021/05/05 08:13:15;;;;;;;1.73;0.47;;;;;;;;;;5051875;28;20033;-65
2021/05/05 08:15:40;;;;;;;1.52;0.73;;;;;;;;;;5050021;28;20024;-65
2021/05/05 08:18:06;;;;;;;1.35;0.50;;;;;;;;;;5050863;28;20424;-65
2021/05/05 08:20:34;;;;;;;0.43;0.40;;;;;;;;;;5050089;28;20025;-65
2021/05/05 08:23:00;;;;;;;1.45;0.55;;;;;;;;;;5050967;28;20099;-65
2021/05/05 08:25:25;;;;;;;0.82;0.50;;;;;;;;;;5050940;28;20127;-64
2021/05/05 08:27:50;;;;;;;1.00;0.38;;;;;;;;;;5050879;28;20013;-66
2021/05/05 08:30:16;;;;;;;1.17;0.40;;;;;;;;;;5039326;28;20068;-66
2021/05/05 08:32:42;;;;;;;1.02;0.57;;;;;;;;;;5044760;28;20489;-66
2021/05/05 08:35:08;;;;;;;0.95;0.38;;;;;;;;;;5045185;28;20059;-66
2021/05/05 08:37:33;;;;;;;0.80;0.50;;;;;;;;;;5045550;28;20512;-66
2021/05/05 08:39:58;;;;;;;0.65;0.52;;;;;;;;;;5045621;28;20064;-66
2021/05/05 08:42:24;;;;;;;3.38;0.95;;;;;;;;;;5046033;28;20029;-66
2021/05/05 08:44:49;;;;;;;1.17;0.63;;;;;;;;;;5045655;28;20037;-66
2021/05/05 08:47:16;;;;;;;2.90;0.93;;;;;;;;;;5045189;28;20075;-66
2021/05/05 08:49:41;;;;;;;1.38;0.80;;;;;;;;;;5045272;28;20025;-66
2021/05/05 08:52:07;;;;;;;1.98;0.77;;;;;;;;;;5045474;28;20046;-66
2021/05/05 08:54:32;;;;;;;0.90;0.60;;;;;;;;;;5045851;28;20033;-66
2021/05/05 08:56:57;;;;;;;3.30;0.98;;;;;;;;;;5045115;28;20017;-67
2021/05/05 08:59:23;;;;;;;1.67;0.80;;;;;;;;;;5044838;28;20423;-66
2021/05/05 09:01:49;;;;;;;2.17;0.70;;;;;;;;;;5045441;28;20565;-66
2021/05/05 09:04:14;;;;;;;1.35;0.85;;;;;;;;;;5043456;28;20035;-66
2021/05/05 09:06:42;;;;;;;2.45;0.90;;;;;;;;;;5045841;28;20055;-66
2021/05/05 09:09:08;;;;;;;4.38;0.98;;;;;;;;;;5045050;28;20037;-67
2021/05/05 09:11:53;;;;;;;4.45;0.80;;;;;;;;;;5045511;28;20036;-67
2021/05/05 09:14:18;;;;;;;3.10;0.70;;;;;;;;;;5046260;28;20037;-65
2021/05/05 09:16:44;;;;;;;2.67;0.60;;;;;;;;;;5050612;28;20493;-65
2021/05/05 09:19:10;;;;;;;2.95;0.73;;;;;;;;;;5050306;28;20020;-64
2021/05/05 09:21:36;;;;;;;3.80;0.70;;;;;;;;;;5050060;28;20560;-64
2021/05/05 09:24:14;;;;;;;2.22;0.80;;;;;;;;;;5050438;28;20049;-66
2021/05/05 09:26:40;;;;;;;2.95;0.73;;;;;;;;;;5050402;28;20033;-66
2021/05/05 09:29:05;;;;;;;1.80;0.73;;;;;;;;;;5050657;28;20362;-66
2021/05/05 09:31:34;;;;;;;2.17;0.77;;;;;;;;;;5036634;28;20029;-66
2021/05/05 09:34:00;;;;;;;2.63;0.70;;;;;;;;;;5045698;28;20044;-66
2021/05/05 09:36:26;;;;;;;3.80;1.25;;;;;;;;;;5043406;28;20033;-66
2021/05/05 09:38:51;;;;;;;2.17;0.90;;;;;;;;;;5046813;28;20452;-67
2021/05/05 09:41:21;;;;;;;2.15;1.10;;;;;;;;;;5044696;28;20098;-67
2021/05/05 09:43:46;;;;;;;2.47;1.23;;;;;;;;;;5043311;28;20041;-65
2021/05/05 09:46:30;;;;;;;6.43;1.17;;;;;;;;;;5046277;28;20031;-65
2021/05/05 09:49:14;;;;;;;2.65;1.05;;;;;;;;;;5048424;28;20052;-65
2021/05/05 09:51:50;;;;;;;2.70;0.90;;;;;;;;;;5045551;28;20132;-65
2021/05/05 09:54:29;;;;;;;2.25;0.82;;;;;;;;;;5046461;28;20039;-65
2021/05/05 09:57:10;;;;;;;2.97;1.10;;;;;;;;;;5046172;28;20041;-66
2021/05/05 09:59:52;;;;;;;1.98;0.90;;;;;;;;;;5040987;28;20022;-65
2021/05/05 10:02:17;;;;;;;1.80;0.88;;;;;;;;;;5043202;28;20029;-65
2021/05/05 10:04:55;;;;;;;2.90;1.00;;;;;;;;;;5044133;28;20055;-65
2021/05/05 10:07:20;;;;;;;0.93;0.50;;;;;;;;;;5042798;28;20032;-65
2021/05/05 10:09:46;;;;;;;3.33;0.50;;;;;;;;;;5042724;28;20756;-65
2021/05/05 10:12:11;;;;;;;0.95;0.40;;;;;;;;;;5041774;28;20033;-65
2021/05/05 10:14:37;;;;;;;3.05;1.00;;;;;;;;;;5044045;28;20062;-65
2021/05/05 10:17:02;;;;;;;1.27;0.95;;;;;;;;;;5048041;28;20083;-65
2021/05/05 10:19:28;;;;;;;1.38;0.73;;;;;;;;;;5048611;28;20478;-65
2021/05/05 10:21:55;;;;;;;4.03;0.95;;;;;;;;;;5048268;28;20056;-65
2021/05/05 10:24:21;;;;;;;2.70;0.88;;;;;;;;;;5048480;28;20133;-65
2021/05/05 10:26:47;;;;;;;1.77;0.80;;;;;;;;;;5048601;28;20366;-65
2021/05/05 10:29:13;;;;;;;1.25;0.50;;;;;;;;;;5048078;28;20028;-65
2021/05/05 10:31:39;;;;;;;1.52;0.63;;;;;;;;;;5049022;28;20517;-65
2021/05/05 10:34:14;;;;;;;2.25;1.35;;;;;;;;;;5052255;28;20037;-66
2021/05/05 10:36:41;;;;;;;1.70;0.77;;;;;;;;;;5046338;28;20017;-66
2021/05/05 10:39:18;;;;;;;2.15;0.90;;;;;;;;;;5051517;28;20044;-67
2021/05/05 10:42:04;;;;;;;1.58;0.70;;;;;;;;;;5050790;28;20025;-66
2021/05/05 10:44:33;;;;;;;0.80;0.60;;;;;;;;;;5033864;28;20160;-66
2021/05/05 10:47:15;;;;;;;1.88;0.63;;;;;;;;;;5052245;28;20071;-66
2021/05/05 10:49:59;;;;;;;0.90;0.50;;;;;;;;;;5039061;28;20591;-66
2021/05/05 10:52:28;;;;;;;0.90;0.45;;;;;;;;;;5044513;28;20041;-66
2021/05/05 10:54:54;;;;;;;1.85;0.70;;;;;;;;;;5046621;28;20029;-66
2021/05/05 10:57:20;;;;;;;0.75;0.50;;;;;;;;;;5045747;28;20021;-66
2021/05/05 10:59:58;;;;;;;2.78;1.02;;;;;;;;;;5046887;28;20029;-66
2021/05/05 11:02:38;;;;;;;3.38;1.13;;;;;;;;;;5044883;28;20567;-66
2021/05/05 11:05:05;;;;;;;5.15;0.70;;;;;;;;;;5045615;28;20044;-66
2021/05/05 11:07:49;;;;;;;1.77;0.98;;;;;;;;;;5046017;28;20512;-66
2021/05/05 11:10:46;;;;;;;2.45;1.10;;;;;;;;;;5042830;28;20052;-66
2021/05/05 11:13:15;;;;;;;1.08;0.68;;;;;;;;;;5010946;28;20512;-66
2021/05/05 11:15:40;;;;;;;5.97;0.80;;;;;;;;;;5045960;28;20604;-66
2021/05/05 11:18:24;;;;;;;0.98;0.70;;;;;;;;;;5045267;28;20119;-66
2021/05/05 11:20:49;;;;;;;2.75;1.15;;;;;;;;;;5030861;28;20040;-66
2021/05/05 11:23:46;;;;;;;3.00;1.30;;;;;;;;;;5044647;28;20039;-66
2021/05/05 11:26:14;;;;;;;1.80;1.05;;;;;;;;;;5043279;28;20191;-66
2021/05/05 11:28:49;;;;;;;1.40;0.77;;;;;;;;;;5045535;28;20118;-66
2021/05/05 11:31:14;;;;;;;1.02;0.70;;;;;;;;;;5044681;28;20128;-66
2021/05/05 11:33:58;;;;;;;2.33;0.90;;;;;;;;;;5044336;28;20028;-66
2021/05/05 11:36:23;;;;;;;2.88;1.08;;;;;;;;;;5044895;28;20040;-66
2021/05/05 11:38:49;;;;;;;3.50;1.23;;;;;;;;;;5045552;28;20040;-66
2021/05/05 11:41:19;;;;;;;1.90;0.95;;;;;;;;;;5048554;28;20087;-66
2021/05/05 11:43:44;;;;;;;0.82;0.70;;;;;;;;;;5063390;28;20032;-66
2021/05/05 11:46:10;;;;;;;2.65;0.70;;;;;;;;;;5050151;28;20465;-66
2021/05/05 11:48:36;;;;;;;0.88;0.60;;;;;;;;;;5042301;28;20021;-66
2021/05/05 11:51:14;;;;;;;1.70;0.73;;;;;;;;;;5042547;28;20039;-66
2021/05/05 11:53:39;;;;;;;1.33;0.70;;;;;;;;;;5041589;28;20041;-66
2021/05/05 11:56:14;;;;;;;1.50;0.90;;;;;;;;;;5041879;28;20032;-66
2021/05/05 11:58:39;;;;;;;0.60;0.40;;;;;;;;;;5039690;28;20859;-66
2021/05/05 12:01:04;;;;;;;1.00;0.40;;;;;;;;;;5040824;28;20029;-66
2021/05/05 12:03:30;;;;;;;1.15;0.43;;;;;;;;;;5041666;28;20113;-66
2021/05/05 12:05:55;;;;;;;1.30;0.50;;;;;;;;;;5042183;28;20037;-66
2021/05/05 12:08:22;;;;;;;3.65;0.60;;;;;;;;;;5041524;28;20424;-66
2021/05/05 12:10:54;;;;;;;1.35;0.52;;;;;;;;;;5041059;28;20068;-66
2021/05/05 12:13:20;;;;;;;0.82;0.45;;;;;;;;;;5040922;28;20029;-66
2021/05/05 12:15:58;;;;;;;1.75;0.70;;;;;;;;;;5042004;28;20035;-66
2021/05/05 12:18:33;;;;;;;1.20;0.60;;;;;;;;;;5040720;28;20033;-66
2021/05/05 12:21:03;;;;;;;1.40;0.47;;;;;;;;;;5040824;28;20055;-66
2021/05/05 12:23:55;;;;;;;2.92;0.50;;;;;;;;;;5042843;28;20029;-66
2021/05/05 12:26:21;;;;;;;0.63;0.57;;;;;;;;;;5036876;28;20061;-66
2021/05/05 12:28:47;;;;;;;0.55;0.50;;;;;;;;;;5041523;28;20037;-66
2021/05/05 12:31:14;;;;;;;1.88;0.50;;;;;;;;;;5042373;28;20035;-64
2021/05/05 12:33:42;;;;;;;1.42;0.70;;;;;;;;;;5045495;28;20024;-66
2021/05/05 12:36:11;;;;;;;1.23;0.55;;;;;;;;;;5044020;28;20283;-67
2021/05/05 12:38:42;;;;;;;2.30;0.60;;;;;;;;;;5044046;28;20092;-66
2021/05/05 12:41:14;;;;;;;1.75;0.60;;;;;;;;;;5044177;28;20121;-66
2021/05/05 12:43:40;;;;;;;2.03;0.40;;;;;;;;;;5042712;28;20036;-66
2021/05/05 12:46:19;;;;;;;1.13;0.45;;;;;;;;;;5045165;28;20064;-66
2021/05/05 12:48:44;;;;;;;3.00;0.55;;;;;;;;;;5043989;28;20033;-66
2021/05/05 12:51:14;;;;;;;1.52;0.70;;;;;;;;;;5044967;28;20087;-66
2021/05/05 12:53:54;;;;;;;3.88;0.70;;;;;;;;;;5033986;28;20107;-66
2021/05/05 12:56:21;;;;;;;7.35;0.95;;;;;;;;;;5039692;28;20485;-66
2021/05/05 12:58:47;;;;;;;2.75;0.80;;;;;;;;;;5039467;28;20079;-66
2021/05/05 13:01:13;;;;;;;4.97;0.80;;;;;;;;;;5040946;28;20040;-66
2021/05/05 13:03:40;;;;;;;3.13;0.73;;;;;;;;;;5040680;28;20033;-66
2021/05/05 13:06:06;;;;;;;1.13;0.65;;;;;;;;;;5041648;28;20041;-66
2021/05/05 13:08:36;;;;;;;5.90;0.90;;;;;;;;;;5040396;28;20231;-66
2021/05/05 13:11:06;;;;;;;2.90;1.00;;;;;;;;;;5040033;28;20489;-66
2021/05/05 13:13:45;;;;;;;1.63;0.75;;;;;;;;;;5041179;28;20044;-66
2021/05/05 13:19:09;;;;;;;1.45;0.77;;;;;;;;;;5041440;28;20041;-66
2021/05/05 13:33:17;;;;;;;2.35;0.63;;;;;;;;;;5016837;28;20040;-66
2021/05/05 13:35:57;;;;;;;0.93;0.60;;;;;;;;;;5041651;28;20037;-66
2021/05/05 13:38:24;;;;;;;0.88;0.50;;;;;;;;;;5040481;28;20937;-66
2021/05/05 13:40:51;;;;;;;1.13;0.60;;;;;;;;;;5040276;28;20060;-67
2021/05/05 13:45:58;;;;;;;2.00;0.60;;;;;;;;;;5040824;28;20037;-66
2021/05/05 13:48:26;;;;;;;2.08;0.60;;;;;;;;;;5039890;28;20041;-66
2021/05/05 13:50:53;;;;;;;0.70;0.50;;;;;;;;;;5044054;28;20029;-64
2021/05/05 13:53:18;;;;;;;0.55;0.45;;;;;;;;;;5044728;28;20060;-66
2021/05/05 13:55:44;;;;;;;1.90;0.65;;;;;;;;;;5044650;28;20117;-66
2021/05/05 13:58:09;;;;;;;1.05;0.65;;;;;;;;;;5043076;28;20428;-66
2021/05/05 14:00:34;;;;;;;3.40;0.75;;;;;;;;;;5044153;28;20504;-66
2021/05/05 14:03:00;;;;;;;2.78;0.70;;;;;;;;;;5043253;28;20017;-66
2021/05/05 14:05:25;;;;;;;1.98;0.60;;;;;;;;;;5044416;28;20048;-66
2021/05/05 14:07:50;;;;;;;5.68;0.95;;;;;;;;;;5044528;28;20033;-66
2021/05/05 14:10:16;;;;;;;2.60;0.50;;;;;;;;;;5044663;28;20784;-64
2021/05/05 14:12:41;;;;;;;0.40;0.40;;;;;;;;;;5043279;28;20039;-66
2021/05/05 14:15:08;;;;;;;1.10;0.60;;;;;;;;;;5043943;28;20037;-67
2021/05/05 14:17:41;;;;;;;1.98;0.60;;;;;;;;;;5045044;28;20036;-67
2021/05/05 14:20:10;;;;;;;2.33;0.50;;;;;;;;;;5044099;28;20469;-67
2021/05/05 14:22:36;;;;;;;2.75;0.70;;;;;;;;;;5044762;28;20043;-67
2021/05/05 14:25:05;;;;;;;2.25;0.50;;;;;;;;;;5045526;28;20048;-67
2021/05/05 14:27:31;;;;;;;1.70;0.50;;;;;;;;;;5044058;28;20051;-64
2021/05/05 14:29:56;;;;;;;1.20;0.40;;;;;;;;;;5043535;28;20081;-66
2021/05/05 14:32:21;;;;;;;3.88;0.95;;;;;;;;;;5043417;28;20037;-66
2021/05/05 14:34:47;;;;;;;3.92;0.63;;;;;;;;;;5043749;28;20052;-66
2021/05/05 14:37:12;;;;;;;3.28;0.90;;;;;;;;;;5039174;28;20037;-66
2021/05/05 14:39:37;;;;;;;4.10;0.60;;;;;;;;;;5042816;28;20064;-66
2021/05/05 14:42:08;;;;;;;1.10;0.60;;;;;;;;;;5043115;28;20029;-66
2021/05/05 14:44:35;;;;;;;2.05;0.47;;;;;;;;;;5042652;28;20509;-66
2021/05/05 14:49:54;;;;;;;3.53;1.20;;;;;;;;;;5024572;28;20115;-67
2021/05/05 14:52:22;;;;;;;0.77;0.70;;;;;;;;;;5043477;28;20040;-66
2021/05/05 14:54:48;;;;;;;2.28;0.90;;;;;;;;;;5041502;28;20124;-66
2021/05/05 14:57:13;;;;;;;3.05;0.50;;;;;;;;;;5043195;28;20104;-66
2021/05/05 14:59:39;;;;;;;1.23;0.50;;;;;;;;;;5043440;28;20486;-66
2021/05/05 15:02:04;;;;;;;3.25;0.75;;;;;;;;;;5039839;28;20025;-66
2021/05/05 15:04:29;;;;;;;1.92;0.80;;;;;;;;;;5043788;28;20037;-66
2021/05/05 15:06:58;;;;;;;2.15;0.80;;;;;;;;;;5043555;28;20043;-66
2021/05/05 15:09:52;;;;;;;3.40;1.67;;;;;;;;;;5043531;28;20032;-66
2021/05/05 15:27:56;;;;;;;1.27;0.60;;;;;;;;;;5043734;28;20442;-66